Time;durP1;ratioP1;P1;durP2;ratioP2;P2;SDS_P1;SDS_P2;PMS_P1;PMS_P2;Temp;Humidity;BMP_temperature;BMP_pressure;BME280_temperature;BME280_humidity;BME280_pressure;Samples;Min_cycle;Max_cycle;Signal;HPM_P1;HPM_P2
2022/03/20 00:00:40;;;;;;;19.67;13.40;;;3.90;99.90;;;4.71;51.06;-19887.19;5073362;28;20306;-58
2022/03/20 00:03:12;;;;;;;18.33;14.00;;;3.90;99.90;;;4.48;51.72;-19879.31;5091050;28;20639;-58
2022/03/20 00:05:42;;;;;;;19.30;14.17;;;3.90;99.90;;;4.55;51.59;-19881.72;5090854;28;20294;-55
2022/03/20 00:08:12;;;;;;;20.17;14.17;;;3.80;99.90;;;4.53;51.51;-19881.03;5090481;28;20224;-56
2022/03/20 00:10:44;;;;;;;21.37;14.37;;;3.80;99.90;;;4.48;51.77;-19879.47;5090377;28;20288;-57
2022/03/20 00:13:16;;;;;;;20.17;14.47;;;3.80;99.90;;;4.30;52.28;-19873.34;5090035;28;20225;-58
2022/03/20 00:15:48;;;;;;;18.73;14.03;;;3.70;99.90;;;4.29;52.05;-19873.00;5090513;28;20234;-58
2022/03/20 00:18:25;;;;;;;18.20;13.83;;;3.70;99.90;;;4.41;52.09;-19877.09;5090750;28;20328;-55
2022/03/20 00:20:56;;;;;;;19.73;14.53;;;3.70;99.90;;;4.20;52.90;-19869.75;5091155;28;20258;-57
2022/03/20 00:23:25;;;;;;;18.07;13.80;;;3.60;99.90;;;4.28;52.56;-19872.66;5090843;28;20312;-55
2022/03/20 00:25:55;;;;;;;20.17;14.87;;;3.60;99.90;;;4.48;52.11;-19879.47;5090345;28;20253;-56
2022/03/20 00:28:26;;;;;;;19.47;14.37;;;3.70;99.90;;;4.23;52.81;-19870.94;5090272;28;20407;-57
2022/03/20 00:30:57;;;;;;;18.73;14.37;;;3.60;99.90;;;4.38;52.03;-19875.91;5092229;28;20664;-57
2022/03/20 00:33:26;;;;;;;18.77;14.17;;;3.60;99.90;;;4.32;52.33;-19873.84;5094040;28;20285;-57
2022/03/20 00:35:54;;;;;;;23.40;14.33;;;3.60;99.90;;;4.13;52.97;-19867.53;5094805;28;20200;-58
2022/03/20 00:38:23;;;;;;;20.13;14.37;;;3.50;99.90;;;4.28;52.64;-19872.47;5093774;28;20224;-56
2022/03/20 00:40:50;;;;;;;23.60;15.00;;;3.50;99.90;;;4.43;52.22;-19877.59;5093796;28;20226;-57
2022/03/20 00:43:19;;;;;;;20.40;14.93;;;3.60;99.90;;;4.37;51.83;-19875.72;5093340;28;20314;-58
2022/03/20 00:45:47;;;;;;;19.40;14.50;;;3.60;99.90;;;4.17;52.92;-19868.72;5093792;28;20233;-57
2022/03/20 00:48:19;;;;;;;18.50;13.80;;;3.60;99.90;;;4.36;52.22;-19875.22;5093705;28;20240;-58
2022/03/20 00:50:47;;;;;;;21.27;14.33;;;3.50;99.90;;;4.42;52.61;-19877.44;5094360;28;20286;-56
2022/03/20 00:53:16;;;;;;;19.07;15.10;;;3.60;99.90;;;4.38;52.49;-19875.91;5093520;28;20238;-57
2022/03/20 00:55:44;;;;;;;19.83;14.67;;;3.60;99.90;;;4.16;53.32;-19868.53;5093705;28;20251;-56
2022/03/20 00:58:12;;;;;;;20.87;15.10;;;3.50;99.90;;;4.22;53.17;-19870.59;5093016;28;20313;-58
2022/03/20 01:00:40;;;;;;;21.73;15.13;;;3.50;99.90;;;4.12;53.63;-19867.19;5093302;28;20302;-59
2022/03/20 01:03:09;;;;;;;20.57;15.00;;;3.50;99.90;;;4.01;53.80;-19863.41;5093676;28;20562;-58
2022/03/20 01:05:38;;;;;;;21.60;15.37;;;3.40;99.90;;;3.99;53.84;-19862.56;5093393;28;20300;-58
2022/03/20 01:08:06;;;;;;;20.13;14.80;;;3.30;99.90;;;3.99;54.08;-19862.72;5093106;28;20234;-56
2022/03/20 01:10:36;;;;;;;19.53;15.13;;;3.30;99.90;;;3.99;54.22;-19862.56;5093202;28;20238;-56
2022/03/20 01:13:04;;;;;;;19.50;14.70;;;3.30;99.90;;;3.88;54.39;-19858.97;5092619;28;20257;-55
2022/03/20 01:15:32;;;;;;;19.47;14.30;;;3.20;99.90;;;3.97;54.40;-19861.88;5093398;28;20761;-57
2022/03/20 01:18:00;;;;;;;20.57;15.43;;;3.20;99.90;;;4.03;54.18;-19863.94;5093968;28;20196;-56
2022/03/20 01:20:28;;;;;;;22.67;14.63;;;3.30;99.90;;;3.90;54.32;-19859.50;5092995;28;20769;-58
2022/03/20 01:22:58;;;;;;;19.73;14.83;;;3.20;99.90;;;4.03;54.26;-19863.94;5092688;28;20428;-57
2022/03/20 01:25:26;;;;;;;24.60;16.10;;;3.20;99.90;;;3.98;54.11;-19862.41;5093214;28;20319;-58
2022/03/20 01:27:54;;;;;;;23.80;15.47;;;3.20;99.90;;;3.97;54.63;-19861.88;5092763;28;20232;-56
2022/03/20 01:30:23;;;;;;;23.20;14.97;;;3.20;99.90;;;3.70;55.34;-19852.81;5092950;28;20230;-56
2022/03/20 01:32:51;;;;;;;20.97;15.30;;;3.10;99.90;;;3.79;55.51;-19855.91;5093260;28;20210;-58
2022/03/20 01:35:19;;;;;;;20.40;14.90;;;3.00;99.90;;;3.99;54.71;-19862.72;5092987;28;20234;-58
2022/03/20 01:37:47;;;;;;;18.87;14.30;;;3.10;99.90;;;4.06;54.51;-19864.97;5092585;28;20317;-57
2022/03/20 01:40:17;;;;;;;18.93;14.53;;;3.20;99.90;;;3.77;55.07;-19855.22;5092932;28;20316;-58
2022/03/20 01:42:46;;;;;;;19.27;14.70;;;3.10;99.90;;;3.69;55.66;-19852.47;5091983;28;20330;-59
2022/03/20 01:45:19;;;;;;;21.87;14.83;;;3.00;99.90;;;3.81;55.04;-19856.41;5093330;28;20297;-57
2022/03/20 01:47:49;;;;;;;22.73;15.17;;;3.00;99.90;;;3.50;56.19;-19846.00;5092587;28;20222;-56
2022/03/20 01:50:20;;;;;;;20.47;14.47;;;3.00;99.90;;;3.67;55.78;-19851.97;5092510;28;20595;-59
2022/03/20 01:52:51;;;;;;;19.87;14.97;;;2.90;99.90;;;3.60;55.63;-19849.56;5091956;28;20424;-56
2022/03/20 01:55:24;;;;;;;21.60;15.00;;;2.90;99.90;;;3.44;56.35;-19844.09;5092692;28;20310;-56
2022/03/20 01:57:54;;;;;;;21.50;16.13;;;2.80;99.90;;;3.61;55.98;-19849.91;5091943;28;20586;-58
2022/03/20 02:00:25;;;;;;;21.00;15.17;;;2.90;99.90;;;3.60;55.96;-19849.41;5092319;28;20196;-57
2022/03/20 02:02:54;;;;;;;26.13;15.87;;;2.90;99.90;;;3.51;56.14;-19846.50;5092575;28;20640;-57
2022/03/20 02:05:22;;;;;;;20.63;14.90;;;2.80;99.90;;;3.48;56.34;-19845.47;5092099;28;20243;-55
2022/03/20 02:07:51;;;;;;;22.63;16.03;;;2.80;99.90;;;3.63;56.17;-19850.59;5091971;28;20246;-56
2022/03/20 02:10:19;;;;;;;22.13;15.20;;;2.80;99.90;;;3.57;56.03;-19848.38;5092262;28;20224;-56
2022/03/20 02:12:48;;;;;;;21.83;15.60;;;2.80;99.90;;;3.66;55.88;-19851.63;5091659;28;20239;-54
2022/03/20 02:15:16;;;;;;;20.00;15.23;;;2.90;99.90;;;3.59;55.93;-19849.22;5091887;28;20736;-54
2022/03/20 02:17:45;;;;;;;21.43;15.03;;;2.80;99.90;;;3.46;56.38;-19844.78;5092384;28;20196;-58
2022/03/20 02:20:13;;;;;;;19.57;15.07;;;2.80;99.90;;;3.42;56.33;-19843.25;5091880;28;20254;-57
2022/03/20 02:22:45;;;;;;;20.10;15.10;;;2.80;99.90;;;3.45;56.71;-19844.44;5091772;28;20257;-57
2022/03/20 02:25:16;;;;;;;21.27;15.17;;;2.80;99.90;;;3.43;56.37;-19843.59;5091904;28;20735;-56
2022/03/20 02:27:45;;;;;;;23.03;15.97;;;2.80;99.90;;;3.43;56.66;-19843.75;5091665;28;20256;-56
2022/03/20 02:30:16;;;;;;;21.03;15.13;;;2.70;99.90;;;3.38;56.88;-19841.88;5092224;28;20253;-56
2022/03/20 02:32:47;;;;;;;20.03;14.70;;;2.70;99.90;;;3.39;56.86;-19842.41;5091860;28;20216;-57
2022/03/20 02:35:18;;;;;;;23.53;15.63;;;2.70;99.90;;;3.54;56.67;-19847.53;5091871;28;20336;-56
2022/03/20 02:37:50;;;;;;;23.50;15.20;;;2.70;99.90;;;3.59;56.39;-19849.22;5091591;28;20231;-59
2022/03/20 02:40:21;;;;;;;23.90;15.10;;;2.70;99.90;;;3.27;57.37;-19838.13;5091629;28;20223;-55
2022/03/20 02:42:53;;;;;;;21.30;14.87;;;2.60;99.90;;;3.49;56.85;-19845.81;5091225;28;20751;-58
2022/03/20 02:45:23;;;;;;;21.50;15.27;;;2.70;99.90;;;3.24;57.68;-19837.09;5091248;28;20204;-56
2022/03/20 02:47:52;;;;;;;22.63;16.33;;;2.60;99.90;;;3.27;57.61;-19838.28;5091801;28;20210;-55
2022/03/20 02:50:24;;;;;;;21.77;15.13;;;2.60;99.90;;;3.29;57.41;-19838.81;5090889;28;20282;-56
2022/03/20 02:52:58;;;;;;;23.87;15.17;;;2.60;99.90;;;3.44;57.18;-19843.94;5090823;28;20220;-57
2022/03/20 02:55:29;;;;;;;25.33;15.43;;;2.60;99.90;;;3.31;57.67;-19839.50;5090910;28;20246;-57
2022/03/20 02:58:01;;;;;;;22.20;15.30;;;2.60;99.90;;;3.28;57.98;-19838.63;5091113;28;20306;-57
2022/03/20 03:00:31;;;;;;;21.67;14.97;;;2.60;99.90;;;3.12;58.13;-19833.00;5091030;28;20201;-54
2022/03/20 03:03:04;;;;;;;24.70;16.00;;;2.50;99.90;;;3.22;58.11;-19836.41;5091551;28;20308;-56
2022/03/20 03:05:33;;;;;;;21.03;14.97;;;2.50;99.90;;;3.07;58.19;-19831.44;5090912;28;20725;-56
2022/03/20 03:10:59;;;;;;;19.70;14.50;;;2.40;99.90;;;3.03;58.59;-19830.09;5091221;28;20311;-57
2022/03/20 03:13:31;;;;;;;22.77;14.93;;;2.30;99.90;;;3.18;58.12;-19835.03;5090310;28;20247;-58
2022/03/20 03:16:02;;;;;;;24.70;15.00;;;2.40;99.90;;;3.01;58.54;-19829.41;5091201;28;20243;-58
2022/03/20 03:18:31;;;;;;;22.73;15.83;;;2.40;99.90;;;3.06;58.20;-19831.09;5091044;28;20191;-54
2022/03/20 03:21:00;;;;;;;20.77;15.13;;;2.40;99.90;;;3.18;57.97;-19835.22;5091491;28;20197;-58
2022/03/20 03:23:30;;;;;;;21.07;14.60;;;2.40;99.90;;;3.03;58.46;-19830.09;5090729;28;20220;-58
2022/03/20 03:25:58;;;;;;;20.87;15.10;;;2.30;99.90;;;2.99;58.99;-19828.72;5090753;28;20220;-53
2022/03/20 03:28:34;;;;;;;21.03;14.70;;;2.30;99.90;;;3.03;58.58;-19829.91;5090953;28;20238;-58
2022/03/20 03:31:04;;;;;;;22.80;14.70;;;2.30;99.90;;;3.00;58.96;-19828.88;5090969;28;20225;-59
2022/03/20 03:33:32;;;;;;;21.90;14.70;;;2.30;99.90;;;3.12;58.47;-19833.00;5090836;28;20588;-54
2022/03/20 03:36:01;;;;;;;20.70;14.33;;;2.30;99.90;;;2.93;58.85;-19826.66;5091354;28;20201;-57
2022/03/20 03:38:34;;;;;;;24.17;14.87;;;2.30;99.90;;;3.07;58.38;-19831.28;5090813;28;20224;-59
2022/03/20 03:41:04;;;;;;;22.90;14.97;;;2.30;99.90;;;2.89;58.65;-19825.31;5090796;28;20231;-57
2022/03/20 03:43:32;;;;;;;22.23;14.50;;;2.30;99.90;;;2.86;59.35;-19824.09;5090557;28;20224;-58
2022/03/20 03:46:00;;;;;;;23.40;14.83;;;2.20;99.90;;;2.96;58.65;-19827.69;5090529;28;20228;-59
2022/03/20 03:48:28;;;;;;;21.77;14.97;;;2.30;99.90;;;3.08;58.14;-19831.63;5090642;28;20226;-56
2022/03/20 03:51:01;;;;;;;23.10;15.43;;;2.30;99.90;;;3.05;58.50;-19830.59;5090987;28;20199;-58
2022/03/20 03:53:30;;;;;;;21.27;14.00;;;2.30;99.90;;;2.83;59.18;-19823.06;5090328;28;20654;-56
2022/03/20 03:55:58;;;;;;;19.57;14.30;;;2.20;99.90;;;3.01;58.51;-19829.22;5090218;28;20227;-59
2022/03/20 03:58:26;;;;;;;23.67;15.23;;;2.30;99.90;;;3.13;57.93;-19833.34;5090222;28;20252;-55
2022/03/20 04:00:54;;;;;;;27.63;14.77;;;2.30;99.90;;;3.07;57.86;-19831.44;5089872;28;20303;-58
2022/03/20 04:03:22;;;;;;;22.43;14.60;;;2.30;99.90;;;3.10;57.69;-19832.31;5090129;28;20204;-59
2022/03/20 04:05:50;;;;;;;20.70;14.40;;;2.30;99.90;;;2.89;58.15;-19825.31;5093429;28;20203;-58
2022/03/20 04:08:20;;;;;;;20.37;14.67;;;2.30;99.90;;;3.05;57.63;-19830.78;5094299;28;20282;-55
2022/03/20 04:10:49;;;;;;;21.00;14.50;;;2.30;99.90;;;3.08;57.42;-19831.63;5094149;28;20576;-59
2022/03/20 04:13:18;;;;;;;20.90;14.57;;;2.30;99.90;;;2.84;58.25;-19823.41;5093801;28;20247;-58
2022/03/20 04:15:46;;;;;;;23.13;15.33;;;2.30;99.90;;;2.82;58.12;-19822.72;5094465;28;20221;-59
2022/03/20 04:18:15;;;;;;;17.83;13.63;;;2.20;99.90;;;2.83;57.72;-19823.06;5094733;28;20192;-57
2022/03/20 04:20:44;;;;;;;21.07;15.10;;;2.20;99.90;;;3.06;56.95;-19831.09;5094837;28;20200;-58
2022/03/20 04:26:00;;;;;;;19.87;15.30;;;2.20;99.90;;;2.97;57.32;-19828.03;5093945;28;20311;-56
2022/03/20 04:28:29;;;;;;;21.87;13.70;;;2.20;99.90;;;2.96;57.25;-19827.69;5093804;28;20223;-56
2022/03/20 04:30:57;;;;;;;23.13;15.67;;;2.20;99.90;;;3.07;57.41;-19831.44;5093720;28;20223;-55
2022/03/20 04:33:25;;;;;;;21.43;14.80;;;2.20;99.90;;;2.85;57.90;-19823.75;5093810;28;20251;-56
2022/03/20 04:35:53;;;;;;;19.97;13.60;;;2.20;99.90;;;2.88;57.62;-19824.78;5094680;28;20202;-56
2022/03/20 04:38:21;;;;;;;22.97;14.73;;;2.10;99.90;;;2.94;58.05;-19826.84;5093647;28;20291;-54
2022/03/20 04:40:50;;;;;;;23.93;14.77;;;2.10;99.90;;;2.68;58.40;-19818.13;5093794;28;20234;-55
2022/03/20 04:43:19;;;;;;;20.13;14.40;;;2.10;99.90;;;2.75;58.17;-19820.50;5093421;28;20309;-57
2022/03/20 04:45:47;;;;;;;24.07;15.20;;;2.10;99.90;;;2.94;57.75;-19826.84;5093437;28;20270;-55
2022/03/20 04:59:21;;;;;;;19.87;14.47;;;2.10;99.90;;;2.74;58.33;-19820.16;5093255;28;20312;-55
2022/03/20 05:01:50;;;;;;;22.80;15.17;;;2.10;99.90;;;3.01;57.23;-19829.41;5093041;28;20332;-55
2022/03/20 05:04:18;;;;;;;21.10;14.87;;;2.20;99.90;;;2.94;57.46;-19826.84;5093258;28;20233;-55
2022/03/20 05:06:46;;;;;;;23.90;15.57;;;2.20;99.90;;;2.85;58.17;-19823.75;5092921;28;20962;-56
2022/03/20 05:14:47;;;;;;;20.47;15.17;;;2.10;99.90;;;2.78;58.53;-19821.53;5093534;28;20232;-56
2022/03/20 05:17:16;;;;;;;21.83;15.17;;;2.10;99.90;;;2.83;58.72;-19823.25;5092102;28;20295;-57
2022/03/20 05:19:43;;;;;;;22.50;15.07;;;2.10;99.90;;;2.72;58.72;-19819.50;5093057;28;20227;-57
2022/03/20 05:22:12;;;;;;;20.03;15.10;;;2.00;99.90;;;2.85;58.39;-19823.94;5092604;28;20610;-55
2022/03/20 05:24:41;;;;;;;21.57;14.73;;;2.10;99.90;;;2.90;58.72;-19825.47;5093087;28;20222;-56
2022/03/20 05:27:09;;;;;;;18.03;14.20;;;2.10;99.90;;;2.64;58.86;-19816.59;5093409;28;20200;-58
2022/03/20 05:29:38;;;;;;;23.00;15.37;;;2.00;99.90;;;2.65;58.97;-19816.91;5093045;28;20885;-56
2022/03/20 05:32:09;;;;;;;23.20;15.37;;;2.00;99.90;;;2.83;58.62;-19823.06;5092794;28;20240;-57
2022/03/20 05:34:38;;;;;;;20.90;15.13;;;2.00;99.90;;;2.85;58.21;-19823.94;5092929;28;20224;-56
2022/03/20 05:37:08;;;;;;;20.93;14.30;;;2.10;99.90;;;2.88;58.33;-19824.97;5092618;28;20315;-56
2022/03/20 05:39:36;;;;;;;21.07;15.67;;;2.10;99.90;;;3.05;58.06;-19830.78;5092665;28;20254;-55
2022/03/20 05:42:06;;;;;;;20.50;15.00;;;2.10;99.90;;;2.94;58.53;-19827.00;5093120;28;20289;-57
2022/03/20 05:44:34;;;;;;;22.87;15.13;;;2.10;99.90;;;2.85;58.41;-19823.94;5092389;28;20239;-56
2022/03/20 05:47:02;;;;;;;18.83;14.63;;;2.10;99.90;;;2.79;58.67;-19821.88;5092464;28;20662;-56
2022/03/20 05:49:32;;;;;;;20.10;15.00;;;2.10;99.90;;;2.72;59.09;-19819.31;5092226;28;20303;-56
2022/03/20 05:52:00;;;;;;;20.97;15.63;;;2.10;99.90;;;2.79;58.96;-19821.88;5092387;28;20661;-55
2022/03/20 05:54:28;;;;;;;24.40;15.53;;;2.10;99.90;;;3.03;58.40;-19830.09;5092607;28;20202;-55
2022/03/20 05:59:42;;;;;;;21.47;14.97;;;2.20;99.90;;;3.00;58.73;-19828.88;5092683;28;20281;-56
2022/03/20 06:02:10;;;;;;;20.63;15.17;;;2.20;99.90;;;3.09;58.12;-19831.97;5091900;28;20224;-55
2022/03/20 06:04:40;;;;;;;21.80;15.03;;;2.30;99.90;;;3.14;58.42;-19833.84;5092276;28;20268;-58
2022/03/20 06:07:08;;;;;;;22.60;14.47;;;2.40;99.90;;;3.30;57.75;-19839.16;5092112;28;20310;-57
2022/03/20 06:09:37;;;;;;;20.40;14.87;;;2.50;99.90;;;3.37;57.36;-19841.72;5092173;28;20251;-54
2022/03/20 06:12:07;;;;;;;21.30;15.07;;;2.50;99.90;;;3.36;57.37;-19841.38;5091961;28;20212;-57
2022/03/20 06:14:35;;;;;;;22.87;14.97;;;2.60;99.90;;;3.62;56.42;-19850.09;5091804;28;20228;-54
2022/03/20 06:17:06;;;;;;;20.73;14.27;;;2.70;99.90;;;3.70;56.27;-19852.81;5091779;28;20301;-56
2022/03/20 06:19:35;;;;;;;20.43;14.77;;;2.80;99.90;;;3.58;56.49;-19848.72;5091656;28;20254;-56
2022/03/20 06:22:06;;;;;;;20.13;14.57;;;2.80;99.90;;;3.58;56.09;-19848.72;5091580;28;20263;-56
2022/03/20 06:24:34;;;;;;;19.13;14.50;;;2.80;99.90;;;3.66;56.16;-19851.63;5091397;28;20277;-55
2022/03/20 06:27:02;;;;;;;21.13;14.30;;;2.90;99.90;;;3.74;55.93;-19854.34;5092253;28;20248;-58
2022/03/20 06:29:31;;;;;;;21.27;14.40;;;2.90;99.90;;;3.86;55.89;-19858.13;5091037;28;20337;-56
2022/03/20 06:31:59;;;;;;;22.23;14.93;;;3.00;99.90;;;4.04;55.02;-19864.28;5090947;28;20222;-56
2022/03/20 06:34:27;;;;;;;22.53;15.20;;;3.10;99.90;;;4.06;55.08;-19865.13;5091107;28;20288;-54
2022/03/20 06:36:57;;;;;;;20.40;15.00;;;3.20;99.90;;;4.08;54.96;-19865.81;5091468;28;20222;-57
2022/03/20 06:39:26;;;;;;;21.37;14.43;;;3.20;99.90;;;4.16;54.64;-19868.53;5091380;28;20236;-55
2022/03/20 06:41:55;;;;;;;20.83;15.37;;;3.30;99.90;;;4.10;54.89;-19866.31;5091499;28;20544;-55
2022/03/20 06:44:24;;;;;;;22.83;14.60;;;3.30;99.90;;;4.23;54.92;-19870.78;5091111;28;20256;-59
2022/03/20 06:46:54;;;;;;;19.17;14.93;;;3.40;99.90;;;4.22;54.59;-19870.59;5091516;28;20276;-57
2022/03/20 06:49:23;;;;;;;22.97;15.63;;;3.40;99.90;;;4.36;54.66;-19875.38;5091276;28;20291;-54
2022/03/20 06:51:51;;;;;;;21.63;17.15;;;3.50;99.90;;;4.48;54.23;-19879.47;5090300;28;20975;-56
2022/03/20 06:54:20;;;;;;;22.37;16.50;;;3.60;99.90;;;4.47;54.36;-19879.16;5091188;28;20202;-56
2022/03/20 06:56:49;;;;;;;23.27;16.33;;;3.60;99.90;;;4.59;54.02;-19883.06;5091933;28;20286;-56
2022/03/20 06:59:18;;;;;;;22.90;15.33;;;3.70;99.90;;;4.78;53.59;-19889.75;5090998;28;20226;-56
2022/03/20 07:01:47;;;;;;;21.20;14.83;;;3.80;99.90;;;4.90;53.14;-19893.69;5090992;28;20322;-55
2022/03/20 07:04:15;;;;;;;22.00;14.67;;;3.90;99.90;;;5.00;52.67;-19897.09;5091156;28;20289;-56
2022/03/20 07:06:43;;;;;;;21.10;15.00;;;4.10;99.90;;;5.04;53.61;-19898.28;5091529;28;20227;-56
2022/03/20 07:09:10;;;;;;;18.53;14.90;;;4.10;99.90;;;5.02;52.95;-19897.59;5091534;28;20285;-58
2022/03/20 07:11:39;;;;;;;21.93;15.20;;;4.20;99.90;;;5.19;52.55;-19903.59;5090560;28;20315;-59
2022/03/20 07:14:08;;;;;;;25.10;14.70;;;4.20;99.90;;;5.14;52.65;-19901.72;5090607;28;20228;-58
2022/03/20 07:16:37;;;;;;;22.10;15.00;;;4.30;99.90;;;5.33;52.45;-19908.38;5090942;28;20290;-58
2022/03/20 07:19:08;;;;;;;20.43;14.40;;;4.40;99.90;;;5.35;51.93;-19909.06;5090882;28;20236;-57
2022/03/20 07:21:36;;;;;;;18.93;14.53;;;4.50;99.90;;;5.37;51.88;-19909.75;5091145;28;20229;-55
2022/03/20 07:24:05;;;;;;;20.07;14.57;;;4.50;99.90;;;5.44;51.97;-19911.97;5090980;28;20697;-56
2022/03/20 07:29:32;;;;;;;21.07;14.10;;;4.60;99.90;;;5.58;51.54;-19916.75;5090372;28;20312;-56
2022/03/20 07:32:04;;;;;;;20.87;14.47;;;4.70;99.90;;;5.61;51.57;-19917.78;5091599;28;20217;-58
2022/03/20 07:34:33;;;;;;;22.07;15.40;;;4.70;99.90;;;5.79;51.54;-19923.94;5090667;28;20233;-57
2022/03/20 07:37:01;;;;;;;20.43;14.60;;;4.80;99.90;;;5.91;51.24;-19928.03;5091069;28;20407;-54
2022/03/20 07:39:29;;;;;;;20.80;14.50;;;4.90;99.90;;;5.94;50.70;-19929.06;5090149;28;20291;-57
2022/03/20 07:41:57;;;;;;;19.27;13.73;;;5.00;99.90;;;6.16;50.21;-19936.75;5091462;28;20295;-55
2022/03/20 07:44:29;;;;;;;20.93;14.70;;;5.20;99.90;;;6.30;49.78;-19941.38;5090709;28;20318;-59
2022/03/20 07:46:57;;;;;;;17.90;14.23;;;5.30;99.90;;;6.42;49.29;-19945.28;5090908;28;20228;-57
2022/03/20 07:49:27;;;;;;;18.13;13.47;;;5.40;99.90;;;6.49;48.33;-19947.84;5090710;28;20251;-58
2022/03/20 07:51:57;;;;;;;18.80;14.03;;;5.60;99.90;;;6.59;48.77;-19951.09;5090733;28;20312;-57
2022/03/20 07:54:25;;;;;;;18.80;13.83;;;5.60;99.90;;;6.64;48.83;-19952.97;5090741;28;20185;-59
2022/03/20 07:56:53;;;;;;;19.27;13.03;;;5.70;99.90;;;6.91;47.79;-19962.03;5091276;28;20570;-56
2022/03/20 07:59:21;;;;;;;18.80;13.57;;;5.90;99.90;;;6.82;47.91;-19959.13;5090352;28;20254;-57
2022/03/20 08:01:51;;;;;;;20.20;13.13;;;5.90;99.90;;;6.86;47.95;-19960.34;5090371;28;20225;-57
2022/03/20 08:04:19;;;;;;;19.70;14.00;;;6.00;99.90;;;7.05;47.64;-19966.81;5090169;28;20254;-57
2022/03/20 08:06:47;;;;;;;16.97;13.73;;;6.10;99.90;;;7.18;47.28;-19971.28;5090777;28;20327;-55
2022/03/20 08:09:15;;;;;;;18.33;13.57;;;6.20;99.90;;;7.32;46.89;-19976.22;5090591;28;20238;-57
2022/03/20 08:11:44;;;;;;;19.13;14.77;;;6.30;99.90;;;7.42;46.36;-19979.63;5090615;28;20252;-58
2022/03/20 08:14:12;;;;;;;16.53;13.33;;;6.40;99.90;;;7.56;46.21;-19984.09;5090067;28;20406;-57
2022/03/20 08:16:41;;;;;;;18.33;13.63;;;6.50;99.90;;;7.79;45.49;-19991.94;5090189;28;20313;-57
2022/03/20 08:19:12;;;;;;;17.10;13.37;;;6.70;99.90;;;7.81;45.55;-19992.63;5090522;28;20309;-58
2022/03/20 08:21:39;;;;;;;18.53;13.90;;;6.80;99.90;;;7.97;44.92;-19998.25;5090113;28;20322;-58
2022/03/20 08:24:08;;;;;;;17.83;13.47;;;6.90;99.90;;;7.97;44.71;-19998.09;5090565;28;20200;-60
2022/03/20 08:26:36;;;;;;;15.43;12.63;;;7.00;99.90;;;8.14;44.33;-20003.91;5089910;28;20231;-55
2022/03/20 08:29:07;;;;;;;17.07;13.97;;;7.10;99.90;;;8.15;44.07;-20004.25;5090317;28;20638;-57
2022/03/20 08:31:36;;;;;;;16.07;13.10;;;7.20;99.90;;;8.29;44.09;-20009.03;5089924;28;20227;-58
2022/03/20 08:34:05;;;;;;;15.63;13.00;;;7.30;99.90;;;8.40;43.56;-20012.97;5090248;28;20235;-56
2022/03/20 08:36:35;;;;;;;16.47;13.13;;;7.40;99.90;;;8.57;43.03;-20018.78;5090449;28;20289;-57
2022/03/20 08:39:04;;;;;;;18.27;13.23;;;7.50;99.90;;;8.67;42.48;-20022.03;5090874;28;20282;-58
2022/03/20 08:41:33;;;;;;;17.57;12.60;;;7.60;99.90;;;8.68;42.25;-20022.34;5090155;28;20248;-58
2022/03/20 08:44:02;;;;;;;17.33;12.77;;;7.70;99.90;;;8.74;42.17;-20024.25;5090004;28;20644;-60
2022/03/20 08:46:30;;;;;;;17.20;13.10;;;7.70;99.90;;;8.78;41.86;-20025.78;5090079;28;20307;-54
2022/03/20 08:49:03;;;;;;;19.90;12.97;;;7.80;99.90;;;8.86;42.13;-20028.34;5090218;28;20250;-60
2022/03/20 08:51:32;;;;;;;17.80;13.03;;;7.90;99.90;;;8.81;42.18;-20026.81;5090098;28;20209;-59
2022/03/20 08:54:02;;;;;;;17.20;12.97;;;7.90;99.90;;;8.93;42.27;-20030.91;5094253;28;20200;-58
2022/03/20 08:56:31;;;;;;;17.20;13.50;;;7.90;99.90;;;8.91;42.18;-20030.06;5093445;28;20236;-56
2022/03/20 08:58:59;;;;;;;19.00;13.27;;;8.00;99.90;;;8.97;42.69;-20032.09;5093384;28;20306;-58
2022/03/20 09:01:27;;;;;;;17.43;13.20;;;8.00;99.90;;;9.06;42.34;-20035.34;5093047;28;20702;-59
2022/03/20 09:03:55;;;;;;;17.53;13.53;;;8.10;99.90;;;9.13;42.20;-20037.56;5093247;28;20232;-57
2022/03/20 09:06:24;;;;;;;17.83;13.73;;;8.10;99.90;;;9.24;42.00;-20041.50;5093335;28;20580;-59
2022/03/20 09:08:53;;;;;;;16.73;12.43;;;8.20;99.90;;;9.12;42.20;-20037.41;5094067;28;20538;-57
2022/03/20 09:11:23;;;;;;;17.27;13.47;;;8.20;99.90;;;9.21;41.91;-20040.47;5092903;28;20230;-57
2022/03/20 09:13:51;;;;;;;19.00;13.03;;;8.30;99.90;;;9.32;41.15;-20044.06;5092965;28;20255;-56
2022/03/20 09:19:07;;;;;;;16.40;12.07;;;8.40;99.90;;;9.44;40.65;-20048.16;5093538;28;20287;-56
2022/03/20 09:21:38;;;;;;;15.90;11.77;;;8.40;99.90;;;9.59;40.78;-20053.44;5093175;28;20288;-58
2022/03/20 09:24:07;;;;;;;16.57;12.97;;;8.60;99.90;;;9.83;40.25;-20061.47;5093511;28;20211;-60
2022/03/20 09:26:37;;;;;;;18.70;12.77;;;8.70;99.90;;;9.91;39.97;-20064.22;5093123;28;20232;-56
2022/03/20 09:29:05;;;;;;;14.87;11.90;;;8.80;99.90;;;10.10;39.91;-20070.53;5092811;28;20223;-58
2022/03/20 09:31:34;;;;;;;14.27;11.27;;;9.00;99.90;;;10.17;39.07;-20073.09;5092043;28;20257;-58
2022/03/20 09:34:08;;;;;;;13.80;11.37;;;9.10;99.90;;;9.97;38.33;-20066.09;5093046;28;20231;-57
2022/03/20 09:36:36;;;;;;;13.73;11.63;;;9.10;99.90;;;10.06;38.37;-20069.34;5092689;28;20303;-56
2022/03/20 09:39:04;;;;;;;14.07;11.40;;;9.10;99.90;;;10.15;38.30;-20072.25;5092896;28;20589;-56
2022/03/20 09:41:34;;;;;;;16.60;11.67;;;9.20;99.90;;;10.25;37.96;-20075.66;5092225;28;20224;-58
2022/03/20 09:44:07;;;;;;;14.33;10.47;;;9.20;99.90;;;10.28;37.92;-20076.69;5092472;28;20311;-57
2022/03/20 09:46:36;;;;;;;13.77;10.77;;;9.30;99.90;;;10.33;37.61;-20078.41;5092533;28;20246;-57
2022/03/20 09:49:07;;;;;;;12.43;10.80;;;9.40;99.90;;;10.49;37.76;-20083.84;5092608;28;20297;-58
2022/03/20 09:51:35;;;;;;;16.00;10.90;;;9.50;99.90;;;10.50;36.88;-20084.22;5092453;28;20302;-59
2022/03/20 09:54:03;;;;;;;14.63;11.33;;;9.50;99.90;;;10.59;36.99;-20087.28;5093278;28;20199;-56
2022/03/20 09:56:32;;;;;;;12.63;10.90;;;9.60;99.90;;;10.58;36.69;-20086.94;5092171;28;20223;-58
2022/03/20 09:59:00;;;;;;;14.53;11.20;;;9.60;99.90;;;10.65;36.81;-20089.50;5092301;28;20678;-56
2022/03/20 10:01:30;;;;;;;12.13;10.43;;;9.70;99.90;;;10.83;37.10;-20095.47;5092020;28;20616;-58
2022/03/20 10:04:10;;;;;;;13.53;10.97;;;9.80;99.90;;;10.94;36.56;-20099.25;5091966;28;20251;-59
2022/03/20 10:06:39;;;;;;;13.57;11.00;;;9.90;99.90;;;11.01;36.42;-20101.63;5092087;28;20750;-57
2022/03/20 10:09:10;;;;;;;12.47;11.17;;;9.90;99.90;;;11.24;36.37;-20109.31;5092662;28;20199;-57
2022/03/20 10:11:41;;;;;;;12.70;10.60;;;10.10;99.90;;;11.13;36.14;-20105.56;5091640;28;20246;-59
2022/03/20 10:14:15;;;;;;;12.03;10.63;;;10.10;99.90;;;11.16;36.39;-20106.56;5091593;28;20228;-60
2022/03/20 10:16:50;;;;;;;13.57;10.33;;;10.20;99.90;;;11.20;36.51;-20108.13;5091741;28;20230;-58
2022/03/20 10:19:33;;;;;;;14.13;10.87;;;10.20;99.90;;;11.39;36.60;-20114.44;5091821;28;20254;-60
2022/03/20 10:22:05;;;;;;;13.03;10.77;;;10.30;99.90;;;11.54;36.71;-20119.72;5091889;28;20603;-59
2022/03/20 10:24:36;;;;;;;11.77;10.23;;;10.40;99.90;;;11.63;36.76;-20122.63;5091937;28;20227;-57
2022/03/20 10:27:16;;;;;;;13.13;10.30;;;10.50;99.90;;;11.72;36.00;-20125.72;5092204;28;20190;-59
2022/03/20 10:29:54;;;;;;;12.70;10.67;;;10.60;99.90;;;11.86;36.47;-20130.66;5088767;28;20215;-59
2022/03/20 10:32:25;;;;;;;13.60;10.70;;;10.70;99.90;;;12.03;36.17;-20136.28;5090075;28;20227;-58
2022/03/20 10:34:56;;;;;;;14.33;10.00;;;10.80;99.90;;;12.11;35.69;-20139.19;5091387;28;20303;-57
2022/03/20 10:37:48;;;;;;;13.23;9.90;;;11.00;99.90;;;12.05;33.25;-20137.16;5074871;28;20218;-58
2022/03/20 10:40:19;;;;;;;12.10;9.37;;;11.00;99.90;;;12.12;31.85;-20139.38;5091641;28;20227;-56
2022/03/20 10:43:09;;;;;;;11.83;8.43;;;11.10;99.90;;;12.27;31.25;-20144.66;5091617;28;20232;-57
2022/03/20 10:45:55;;;;;;;9.83;8.67;;;11.20;99.90;;;12.33;31.40;-20146.53;5075642;28;20306;-57
2022/03/20 10:48:34;;;;;;;10.87;9.13;;;11.30;99.90;;;12.53;30.68;-20153.19;5084695;28;20296;-59
2022/03/20 10:51:04;;;;;;;9.50;8.10;;;11.40;99.10;;;12.56;31.12;-20154.41;5088060;28;20322;-58
2022/03/20 10:53:33;;;;;;;9.73;8.50;;;11.50;99.70;;;12.70;31.21;-20159.16;5084639;28;20690;-59